createdAt,value
2022-09-23T00:01:42.529Z,101525.52
2022-09-23T00:08:54.243Z,101523.52
2022-09-23T00:12:08.132Z,101525.02
2022-09-23T00:16:06.748Z,101523.90
2022-09-23T00:19:15.520Z,101525.34
2022-09-23T00:23:02.614Z,101525.39
2022-09-23T00:26:31.170Z,101527.27
2022-09-23T00:29:47.573Z,101525.33
2022-09-23T00:37:10.622Z,101530.66
2022-09-23T00:44:46.117Z,101533.89
2022-09-23T00:48:19.598Z,101533.14
2022-09-23T00:55:33.984Z,101526.48
2022-09-23T00:59:06.558Z,101526.69
2022-09-23T01:02:31.804Z,101527.83
2022-09-23T01:09:56.458Z,101529.19
2022-09-23T01:21:29.410Z,101539.13
2022-09-23T01:24:51.040Z,101543.33
2022-09-23T01:28:16.403Z,101548.31
2022-09-23T01:31:31.266Z,101547.98
2022-09-23T01:34:56.346Z,101546.31
2022-09-23T01:38:11.850Z,101544.88
2022-09-23T01:41:31.586Z,101546.42
2022-09-23T01:44:30.570Z,101548.02
2022-09-23T01:47:43.943Z,101551.94
2022-09-23T01:50:58.251Z,101547.46
2022-09-23T01:54:13.013Z,101546.11
2022-09-23T01:57:18.987Z,101547.98
2022-09-23T02:00:36.999Z,101549.55
2022-09-23T02:03:32.520Z,101549.70
2022-09-23T02:06:33.073Z,101546.52
2022-09-23T02:09:37.448Z,101546.52
2022-09-23T02:12:49.924Z,101544.73
2022-09-23T02:16:02.268Z,101543.80
2022-09-23T02:19:14.425Z,101545.20
2022-09-23T02:22:27.200Z,101544.20
2022-09-23T02:25:41.873Z,101541.70
2022-09-23T02:28:43.401Z,101537.67
2022-09-23T02:31:58.056Z,101534.80
2022-09-23T02:35:13.724Z,101529.56
2022-09-23T02:38:29.422Z,101531.96
2022-09-23T02:42:00.332Z,101537.25
2022-09-23T02:45:12.749Z,101538.80
2022-09-23T02:52:08.485Z,101540.52
2022-09-23T02:56:03.905Z,101539.77
2022-09-23T02:59:22.429Z,101542.39
2022-09-23T03:02:43.976Z,101541.02
2022-09-23T03:09:57.822Z,101546.39
2022-09-23T03:13:15.439Z,101545.38
2022-09-23T03:16:31.535Z,101544.88
2022-09-23T03:19:52.458Z,101541.98
2022-09-23T03:22:48.324Z,101537.94
2022-09-23T03:26:16.605Z,101545.87
2022-09-23T03:29:27.122Z,101543.48
2022-09-23T03:32:51.320Z,101542.75
2022-09-23T03:36:21.014Z,101542.98
2022-09-23T03:39:40.362Z,101544.23
2022-09-23T03:42:50.491Z,101546.84
2022-09-23T03:50:01.905Z,101548.21
2022-09-23T03:52:51.965Z,101544.02
2022-09-23T04:00:20.990Z,101543.13
2022-09-23T04:07:46.939Z,101539.71
2022-09-23T04:11:02.116Z,101538.91
2022-09-23T04:14:12.358Z,101543.02
2022-09-23T04:17:22.409Z,101547.67
2022-09-23T04:24:40.370Z,101556.30
2022-09-23T04:27:48.939Z,101558.16
2022-09-23T04:35:00.252Z,101558.86
2022-09-23T04:38:56.026Z,101556.58
2022-09-23T04:46:07.844Z,101557.92
2022-09-23T04:49:22.075Z,101561.13
2022-09-23T04:52:32.920Z,101565.88
2022-09-23T04:55:42.624Z,101566.84
2022-09-23T04:58:52.716Z,101564.96
2022-09-23T05:02:02.751Z,101567.33
2022-09-23T05:05:21.397Z,101567.40
2022-09-23T05:08:33.466Z,101570.35
2022-09-23T05:15:44.989Z,101569.39
2022-09-23T05:23:00.299Z,101566.88
2022-09-23T05:26:27.758Z,101572.70
2022-09-23T05:30:06.225Z,101570.02
2022-09-23T05:33:16.332Z,101572.44
2022-09-23T05:36:27.316Z,101574.38
2022-09-23T05:39:37.847Z,101577.42
2022-09-23T05:46:51.723Z,101578.10
2022-09-23T05:54:08.819Z,101579.38
2022-09-23T05:57:36.156Z,101583.16
2022-09-23T06:00:58.252Z,101584.38
2022-09-23T06:04:22.305Z,101590.65
2022-09-23T06:07:24.301Z,101590.61
2022-09-23T06:10:37.336Z,101594.70
2022-09-23T06:13:47.407Z,101598.52
2022-09-23T06:16:57.643Z,101600.64
2022-09-23T06:20:08.588Z,101601.50
2022-09-23T06:23:23.174Z,101604.45
2022-09-23T06:26:23.763Z,101602.71
2022-09-23T06:29:53.375Z,101606.58
2022-09-23T06:32:53.413Z,101607.02
2022-09-23T06:36:36.529Z,101608.72
2022-09-23T06:39:49.355Z,101612.66
2022-09-23T06:43:02.714Z,101611.04
2022-09-23T06:50:25.980Z,101612.88
2022-09-23T06:53:59.111Z,101618.16
2022-09-23T07:01:17.292Z,101628.25
2022-09-23T07:04:29.429Z,101624.66
2022-09-23T07:07:22.409Z,101623.05
2022-09-23T07:10:33.159Z,101624.70
2022-09-23T07:13:46.163Z,101623.44
2022-09-23T07:16:45.248Z,101627.54
2022-09-23T07:19:26.387Z,101630.89
2022-09-23T07:22:15.251Z,101632.11
2022-09-23T07:24:51.881Z,101629.70
2022-09-23T07:27:25.985Z,101627.41
2022-09-23T07:30:24.469Z,101631.46
2022-09-23T07:32:55.154Z,101631.65
2022-09-23T07:35:40.666Z,101633.02
2022-09-23T07:38:20.471Z,101634.80
2022-09-23T07:40:55.524Z,101636.50
2022-09-23T07:43:44.272Z,101635.91
2022-09-23T07:46:22.906Z,101636.04
2022-09-23T07:48:55.201Z,101635.05
2022-09-23T07:51:26.802Z,101632.64
2022-09-23T07:53:56.873Z,101632.13
2022-09-23T07:56:30.805Z,101632.36
2022-09-23T07:59:04.069Z,101631.80
2022-09-23T08:01:34.768Z,101628.75
2022-09-23T08:04:05.874Z,101626.69
2022-09-23T08:06:36.051Z,101630.71
2022-09-23T08:09:05.766Z,101626.73
2022-09-23T08:11:37.514Z,101619.12
2022-09-23T08:14:08.965Z,101621.83
2022-09-23T08:16:38.856Z,101625.60
2022-09-23T08:19:08.755Z,101625.70
2022-09-23T08:21:39.479Z,101631.05
2022-09-23T08:24:09.584Z,101629.80
2022-09-23T08:26:39.207Z,101631.89
2022-09-23T08:29:10.269Z,101629.21
2022-09-23T08:31:39.786Z,101629.11
2022-09-23T08:34:09.576Z,101631.30
2022-09-23T08:36:39.277Z,101631.15
2022-09-23T08:39:08.884Z,101632.48
2022-09-23T08:41:42.229Z,101636.56
2022-09-23T08:44:15.349Z,101633.86
2022-09-23T08:46:47.252Z,101636.27
2022-09-23T08:49:21.840Z,101631.34
2022-09-23T08:51:55.077Z,101626.79
2022-09-23T08:54:31.023Z,101627.92
2022-09-23T08:57:04.711Z,101630.79
2022-09-23T08:59:39.398Z,101635.40
2022-09-23T09:02:35.897Z,101640.10
2022-09-23T09:05:22.920Z,101639.49
2022-09-23T09:07:53.181Z,101640.73
2022-09-23T09:10:24.576Z,101641.30
2022-09-23T09:13:01.797Z,101641.30
2022-09-23T09:15:31.600Z,101640.97
2022-09-23T09:18:03.406Z,101642.00
2022-09-23T09:20:42.554Z,101645.88
2022-09-23T09:23:20.254Z,101645.01
2022-09-23T09:25:52.240Z,101646.30
2022-09-23T09:28:24.835Z,101647.02
2022-09-23T09:31:05.115Z,101646.41
2022-09-23T09:33:42.539Z,101641.34
2022-09-23T09:36:20.270Z,101645.36
2022-09-23T09:38:51.411Z,101637.87
2022-09-23T09:41:24.863Z,101638.96
2022-09-23T09:43:57.891Z,101638.26
2022-09-23T09:46:40.786Z,101638.52
2022-09-23T09:49:28.881Z,101637.63
2022-09-23T09:52:21.194Z,101629.67
2022-09-23T09:54:51.554Z,101624.63
2022-09-23T09:57:35.138Z,101622.64
2022-09-23T10:00:20.547Z,101624.40
2022-09-23T10:02:53.413Z,101622.11
2022-09-23T10:05:27.675Z,101621.11
2022-09-23T10:07:57.430Z,101625.89
2022-09-23T10:10:32.986Z,101621.01
2022-09-23T10:13:14.917Z,101623.33
2022-09-23T10:15:45.926Z,101629.36
2022-09-23T10:18:19.820Z,101633.11
2022-09-23T10:20:49.527Z,101630.46
2022-09-23T10:23:21.663Z,101632.89
2022-09-23T10:26:00.267Z,101626.75
2022-09-23T10:28:33.831Z,101623.92
2022-09-23T10:31:07.873Z,101625.95
2022-09-23T10:33:41.179Z,101625.89
2022-09-23T10:36:15.797Z,101629.39
2022-09-23T10:38:45.992Z,101620.00
2022-09-23T10:41:42.573Z,101616.88
2022-09-23T10:44:56.717Z,101615.41
2022-09-23T10:47:32.425Z,101612.23
2022-09-23T10:50:09.932Z,101614.37
2022-09-23T10:52:45.358Z,101619.52
2022-09-23T10:55:23.742Z,101617.06
2022-09-23T10:58:09.676Z,101619.52
2022-09-23T11:00:48.661Z,101612.87
2022-09-23T11:03:38.752Z,101608.86
2022-09-23T11:06:38.674Z,101614.27
2022-09-23T11:09:19.238Z,101619.02
2022-09-23T11:11:58.913Z,101612.76
2022-09-23T11:14:34.225Z,101608.17
2022-09-23T11:17:15.989Z,101608.29
2022-09-23T11:19:54.188Z,101607.79
2022-09-23T11:22:38.204Z,101607.36
2022-09-23T11:25:19.182Z,101609.23
2022-09-23T11:27:57.298Z,101611.23
2022-09-23T11:30:30.004Z,101607.00
2022-09-23T11:33:14.469Z,101599.34
2022-09-23T11:35:48.239Z,101598.63
2022-09-23T11:38:28.455Z,101595.02
2022-09-23T11:41:01.015Z,101585.96
2022-09-23T11:43:37.681Z,101584.05
2022-09-23T11:46:10.011Z,101585.98
2022-09-23T11:48:45.614Z,101580.10
2022-09-23T11:51:18.503Z,101581.17
2022-09-23T11:53:51.218Z,101577.44
2022-09-23T11:56:33.572Z,101582.20
2022-09-23T11:59:07.763Z,101580.71
2022-09-23T12:01:41.043Z,101588.46
2022-09-23T12:04:20.735Z,101585.55
2022-09-23T12:06:53.969Z,101589.05
2022-09-23T12:09:47.313Z,101586.14
2022-09-23T12:12:25.032Z,101587.31
2022-09-23T12:15:00.066Z,101576.73
2022-09-23T12:17:43.073Z,101567.55
2022-09-23T12:20:30.892Z,101567.79
2022-09-23T12:23:07.755Z,101567.76
2022-09-23T12:25:46.672Z,101566.13
2022-09-23T12:28:20.075Z,101569.16
2022-09-23T12:30:51.418Z,101563.45
2022-09-23T12:33:24.858Z,101562.84
2022-09-23T12:35:55.563Z,101564.38
2022-09-23T12:38:34.354Z,101563.77
2022-09-23T12:41:19.488Z,101561.15
2022-09-23T12:43:55.443Z,101562.65
2022-09-23T12:46:27.654Z,101548.45
2022-09-23T12:49:05.522Z,101550.08
2022-09-23T12:51:35.791Z,101548.69
2022-09-23T12:54:23.879Z,101543.02
2022-09-23T12:57:00.915Z,101542.13
2022-09-23T12:59:31.929Z,101545.20
2022-09-23T13:02:23.202Z,101542.61
2022-09-23T13:05:14.908Z,101546.39
2022-09-23T13:07:46.756Z,101543.55
2022-09-23T13:10:18.574Z,101545.17
2022-09-23T13:12:48.850Z,101545.86
2022-09-23T13:15:29.051Z,101541.91
2022-09-23T13:18:21.321Z,101541.17
2022-09-23T13:20:51.782Z,101536.23
2022-09-23T13:23:25.646Z,101543.42
2022-09-23T13:25:57.129Z,101544.59
2022-09-23T13:28:29.843Z,101544.38
2022-09-23T13:31:00.312Z,101542.13
2022-09-23T13:33:34.420Z,101541.44
2022-09-23T13:36:07.400Z,101537.08
2022-09-23T13:38:37.152Z,101529.86
2022-09-23T13:41:09.874Z,101525.96
2022-09-23T13:43:42.555Z,101525.25
2022-09-23T13:46:17.617Z,101520.80
2022-09-23T13:48:48.953Z,101518.04
2022-09-23T13:51:23.379Z,101520.00
2022-09-23T13:53:57.026Z,101518.78
2022-09-23T13:56:27.841Z,101518.46
2022-09-23T13:59:12.154Z,101519.77
2022-09-23T14:01:41.892Z,101516.75
2022-09-23T14:04:23.764Z,101515.72
2022-09-23T14:06:53.681Z,101511.77
2022-09-23T14:09:25.322Z,101513.86
2022-09-23T14:11:56.433Z,101506.63
2022-09-23T14:14:26.479Z,101503.98
2022-09-23T14:16:56.376Z,101505.98
2022-09-23T14:19:27.121Z,101500.39
2022-09-23T14:21:57.554Z,101497.63
2022-09-23T14:24:32.127Z,101492.84
2022-09-23T14:27:03.854Z,101495.46
2022-09-23T14:29:37.548Z,101497.44
2022-09-23T14:32:08.398Z,101492.05
2022-09-23T14:34:45.891Z,101487.58
2022-09-23T14:37:43.711Z,101491.40
2022-09-23T14:40:15.279Z,101486.86
2022-09-23T14:42:48.742Z,101483.39
2022-09-23T14:45:20.879Z,101479.70
2022-09-23T14:47:51.685Z,101477.56
2022-09-23T14:50:39.914Z,101479.42
2022-09-23T14:53:26.976Z,101482.63
2022-09-23T14:55:58.713Z,101482.20
2022-09-23T14:58:29.774Z,101486.36
2022-09-23T15:01:00.993Z,101490.40
2022-09-23T15:03:30.950Z,101495.27
2022-09-23T15:06:08.295Z,101514.44
2022-09-23T15:08:38.456Z,101516.49
2022-09-23T15:11:09.845Z,101519.36
2022-09-23T15:13:41.123Z,101522.62
2022-09-23T15:16:11.249Z,101528.73
2022-09-23T15:18:42.533Z,101538.06
2022-09-23T15:21:13.807Z,101543.36
2022-09-23T15:23:47.711Z,101542.06
2022-09-23T15:26:18.498Z,101545.52
2022-09-23T15:28:48.766Z,101549.25
2022-09-23T15:31:19.795Z,101554.35
2022-09-23T15:33:50.139Z,101556.78
2022-09-23T15:36:21.189Z,101556.75
2022-09-23T15:39:03.973Z,101557.63
2022-09-23T15:41:33.783Z,101562.44
2022-09-23T15:44:06.690Z,101560.10
2022-09-23T15:47:01.280Z,101561.85
2022-09-23T15:49:34.117Z,101565.48
2022-09-23T15:52:04.887Z,101567.98
2022-09-23T15:54:47.669Z,101569.08
2022-09-23T15:57:21.716Z,101572.02
2022-09-23T15:59:51.602Z,101574.09
2022-09-23T16:02:25.402Z,101571.10
2022-09-23T16:05:06.614Z,101572.55
2022-09-23T16:07:36.485Z,101578.20
2022-09-23T16:14:42.481Z,101578.71
2022-09-23T16:17:14.434Z,101577.95
2022-09-23T16:20:03.642Z,101578.89
2022-09-23T16:22:35.501Z,101585.98
2022-09-23T16:25:06.204Z,101589.42
2022-09-23T16:27:36.116Z,101595.81
2022-09-23T16:30:07.077Z,101604.94
2022-09-23T16:32:36.830Z,101605.86
2022-09-23T16:35:10.860Z,101609.11
2022-09-23T16:37:48.425Z,101609.30
2022-09-23T16:40:20.054Z,101609.99
2022-09-23T16:43:10.294Z,101609.03
2022-09-23T16:46:02.348Z,101609.98
2022-09-23T16:48:32.149Z,101606.19
2022-09-23T16:51:23.959Z,101606.65
2022-09-23T16:54:25.228Z,101603.52
2022-09-23T16:57:35.470Z,101602.80
2022-09-23T17:00:34.471Z,101603.55
2022-09-23T17:03:44.588Z,101601.53
2022-09-23T17:06:29.173Z,101610.52
2022-09-23T17:09:06.521Z,101610.20
2022-09-23T17:12:04.509Z,101609.77
2022-09-23T17:14:45.400Z,101610.80
2022-09-23T17:17:55.680Z,101607.35
2022-09-23T17:21:26.185Z,101606.80
2022-09-23T17:24:26.499Z,101613.63
2022-09-23T17:27:25.754Z,101612.71
2022-09-23T17:30:05.939Z,101614.28
2022-09-23T17:32:38.688Z,101616.13
2022-09-23T17:35:48.816Z,101615.73
2022-09-23T17:38:39.569Z,101619.41
2022-09-23T17:41:28.459Z,101624.33
2022-09-23T17:44:19.130Z,101624.60
2022-09-23T17:47:33.574Z,101625.08
2022-09-23T17:50:43.968Z,101633.16
2022-09-23T17:53:38.663Z,101631.59
2022-09-23T17:56:27.383Z,101632.84
2022-09-23T17:59:05.290Z,101633.08
2022-09-23T18:01:36.211Z,101634.10
2022-09-23T18:04:27.331Z,101635.16
2022-09-23T18:07:43.076Z,101636.65
2022-09-23T18:10:13.075Z,101643.60
2022-09-23T18:13:33.337Z,101642.52
2022-09-23T18:16:35.429Z,101646.19
2022-09-23T18:19:26.052Z,101646.78
2022-09-23T18:22:24.709Z,101651.62
2022-09-23T18:25:38.631Z,101650.77
2022-09-23T18:28:17.605Z,101655.48
2022-09-23T18:31:28.047Z,101663.42
2022-09-23T18:34:39.189Z,101664.81
2022-09-23T18:37:51.348Z,101670.84
2022-09-23T18:40:56.348Z,101670.58
2022-09-23T18:44:00.554Z,101673.39
2022-09-23T18:46:46.397Z,101676.94
2022-09-23T18:49:50.119Z,101680.56
2022-09-23T18:52:53.988Z,101684.17
2022-09-23T18:55:34.293Z,101684.30
2022-09-23T18:58:27.305Z,101684.30
2022-09-23T19:01:37.617Z,101683.70
2022-09-23T19:04:14.349Z,101687.23
2022-09-23T19:06:56.883Z,101685.05
2022-09-23T19:09:59.950Z,101688.20
2022-09-23T19:12:53.082Z,101690.13
2022-09-23T19:16:07.121Z,101695.24
2022-09-23T19:19:17.358Z,101698.94
2022-09-23T19:22:29.985Z,101699.69
2022-09-23T19:25:40.098Z,101699.77
2022-09-23T19:28:33.866Z,101701.31
2022-09-23T19:31:50.240Z,101696.70
2022-09-23T19:35:02.517Z,101704.33
2022-09-23T19:38:21.070Z,101707.91
2022-09-23T19:41:14.295Z,101710.52
2022-09-23T19:44:07.601Z,101711.80
2022-09-23T19:47:07.113Z,101713.08
2022-09-23T19:49:49.063Z,101719.75
2022-09-23T19:53:02.493Z,101721.34
2022-09-23T19:56:07.722Z,101718.55
2022-09-23T19:59:20.509Z,101723.55
2022-09-23T20:02:36.754Z,101726.92
2022-09-23T20:05:56.801Z,101725.77
2022-09-23T20:08:52.940Z,101725.88
2022-09-23T20:11:33.659Z,101726.68
2022-09-23T20:14:27.252Z,101730.92
2022-09-23T20:17:33.398Z,101731.70
2022-09-23T20:20:34.924Z,101734.25
2022-09-23T20:23:26.600Z,101736.95
2022-09-23T20:26:37.295Z,101740.60
2022-09-23T20:29:48.610Z,101741.58
2022-09-23T20:32:44.597Z,101741.73
2022-09-23T20:35:38.253Z,101744.18
2022-09-23T20:38:56.021Z,101751.50
2022-09-23T20:42:08.196Z,101747.47
2022-09-23T20:45:34.610Z,101746.23
2022-09-23T20:52:46.102Z,101751.42
2022-09-23T20:56:21.870Z,101751.75
2022-09-23T20:59:32.047Z,101756.48
2022-09-23T21:02:59.475Z,101759.34
2022-09-23T21:06:10.844Z,101763.43
2022-09-23T21:08:59.424Z,101761.42
2022-09-23T21:11:51.214Z,101768.34
2022-09-23T21:15:00.891Z,101766.52
2022-09-23T21:18:15.000Z,101763.77
2022-09-23T21:25:31.145Z,101763.29
2022-09-23T21:28:46.975Z,101767.59
2022-09-23T21:32:02.552Z,101767.38
2022-09-23T21:34:55.309Z,101762.27
2022-09-23T21:38:09.148Z,101764.64
2022-09-23T21:45:20.764Z,101770.90
2022-09-23T21:48:34.849Z,101766.97
2022-09-23T21:52:03.523Z,101767.98
2022-09-23T21:55:28.998Z,101767.49
2022-09-23T21:58:37.549Z,101765.90
2022-09-23T22:02:04.784Z,101766.14
2022-09-23T22:05:23.388Z,101773.16
2022-09-23T22:08:37.079Z,101775.96
2022-09-23T22:12:05.383Z,101779.62
2022-09-23T22:19:17.249Z,101777.86
2022-09-23T22:26:40.274Z,101778.94
2022-09-23T22:29:40.414Z,101777.48
2022-09-23T22:32:43.730Z,101776.64
2022-09-23T22:35:52.798Z,101773.27
2022-09-23T22:39:16.120Z,101777.73
2022-09-23T22:42:25.127Z,101779.27
2022-09-23T22:45:35.385Z,101783.80
2022-09-23T22:48:45.829Z,101782.56
2022-09-23T22:52:16.212Z,101782.88
2022-09-23T22:55:26.591Z,101787.70
2022-09-23T22:58:37.716Z,101792.35
2022-09-23T23:01:54.639Z,101790.91
2022-09-23T23:05:06.238Z,101796.61
2022-09-23T23:08:17.374Z,101795.23
2022-09-23T23:15:29.033Z,101796.23
2022-09-23T23:18:41.197Z,101791.14
2022-09-23T23:21:51.693Z,101791.75
2022-09-23T23:25:09.931Z,101788.81
2022-09-23T23:28:20.010Z,101788.96
2022-09-23T23:31:32.118Z,101782.94
